Time;durP1;ratioP1;P1;durP2;ratioP2;P2;SDS_P1;SDS_P2;PMS_P1;PMS_P2;Temp;Humidity;BMP_temperature;BMP_pressure;BME280_temperature;BME280_humidity;BME280_pressure;Samples;Min_cycle;Max_cycle;Signal;HPM_P1;HPM_P2
2021/12/18 00:00:47;;;;;;;;;;;;;;;4.42;91.37;103274.72;4960687;27;20891;-87
2021/12/18 00:03:13;;;;;;;;;;;;;;;4.49;91.30;103278.09;4956820;27;20176;-86
2021/12/18 00:05:38;;;;;;;;;;;;;;;4.56;91.62;103277.03;4983202;27;19923;-87
2021/12/18 00:08:04;;;;;;;;;;;;;;;4.67;91.26;103274.19;4979562;27;19992;-85
2021/12/18 00:10:29;;;;;;;;;;;;;;;4.68;91.12;103281.13;4975721;27;20352;-83
2021/12/18 00:12:54;;;;;;;;;;;;;;;4.72;91.60;103282.78;4973162;28;20363;-86
2021/12/18 00:15:20;;;;;;;;;;;;;;;4.70;91.67;103274.09;4978556;27;20003;-87
2021/12/18 00:17:45;;;;;;;;;;;;;;;4.72;91.96;103272.28;4995071;27;19946;-86
2021/12/18 00:20:10;;;;;;;;;;;;;;;4.74;91.67;103273.13;4994626;27;19918;-87
2021/12/18 00:22:36;;;;;;;;;;;;;;;4.82;91.72;103275.56;4974107;27;19908;-86
2021/12/18 00:25:01;;;;;;;;;;;;;;;4.77;91.43;103273.06;4998492;27;19987;-86
2021/12/18 00:27:26;;;;;;;;;;;;;;;4.88;91.44;103269.31;4991467;27;19992;-84
2021/12/18 00:29:51;;;;;;;;;;;;;;;4.89;91.62;103265.78;4962984;27;20327;-86
2021/12/18 00:32:17;;;;;;;;;;;;;;;4.90;91.23;103268.38;4955111;27;20301;-87
2021/12/18 00:34:43;;;;;;;;;;;;;;;4.96;91.67;103275.22;4976583;27;19908;-87
2021/12/18 00:37:09;;;;;;;;;;;;;;;4.94;91.61;103274.44;4951322;28;20008;-86
2021/12/18 00:39:39;;;;;;;;;;;;;;;5.00;91.61;103263.75;4921263;28;20025;-84
2021/12/18 00:42:19;;;;;;;;;;;;;;;5.08;91.75;103260.97;4943373;28;19920;-86
2021/12/18 00:44:46;;;;;;;;;;;;;;;5.11;91.33;103264.34;5003727;27;19923;-86
2021/12/18 00:47:12;;;;;;;;;;;;;;;5.16;91.88;103265.13;5035940;27;20369;-88
2021/12/18 00:49:38;;;;;;;;;;;;;;;5.25;91.29;103263.16;5015389;27;19919;-87
2021/12/18 00:52:04;;;;;;;;;;;;;;;5.18;91.64;103264.22;4996014;28;19912;-85
2021/12/18 00:54:31;;;;;;;;;;;;;;;5.23;91.56;103264.94;4964976;28;20327;-87
2021/12/18 00:57:00;;;;;;;;;;;;;;;5.18;91.57;103262.44;5061475;28;19918;-87
2021/12/18 00:59:27;;;;;;;;;;;;;;;5.28;92.11;103263.91;5079690;28;19911;-87
2021/12/18 01:01:52;;;;;;;;;;;;;;;5.28;91.63;103257.81;5022256;28;19911;-87
2021/12/18 01:04:18;;;;;;;;;;;;;;;5.34;91.77;103257.66;4964342;28;19983;-86
2021/12/18 01:06:43;;;;;;;;;;;;;;;5.43;91.91;103256.53;4958546;28;20436;-83
2021/12/18 01:09:08;;;;;;;;;;;;;;;5.41;91.41;103260.97;4933475;28;20460;-85
2021/12/18 01:11:41;;;;;;;;;;;;;;;5.42;91.67;103260.09;4931752;28;20481;-87
2021/12/18 01:16:51;;;;;;;;;;;;;;;5.45;91.78;103252.97;4953049;28;20023;-89
2021/12/18 01:24:44;;;;;;;;;;;;;;;5.54;91.48;103259.72;4933877;28;20682;-85
2021/12/18 01:27:10;;;;;;;;;;;;;;;5.48;91.27;103259.91;4934119;28;20000;-86
2021/12/18 01:29:35;;;;;;;;;;;;;;;5.46;92.17;103257.31;4942654;28;19900;-86
2021/12/18 01:32:00;;;;;;;;;;;;;;;5.47;92.24;103260.81;4945844;28;20004;-87
2021/12/18 01:34:25;;;;;;;;;;;;;;;5.56;91.86;103259.72;4941708;28;20058;-85
2021/12/18 01:36:51;;;;;;;;;;;;;;;5.61;91.96;103260.44;4937754;28;20359;-83
2021/12/18 01:39:16;;;;;;;;;;;;;;;5.60;91.91;103258.72;4930889;28;20223;-86
2021/12/18 01:42:05;;;;;;;;;;;;;;;5.54;91.79;103254.47;4937191;28;20360;-85
2021/12/18 01:52:32;;;;;;;;;;;;;;;5.53;92.46;103262.41;4930496;28;20352;-87
2021/12/18 01:54:58;;;;;;;;;;;;;;;5.59;92.23;103267.50;4924985;28;20336;-87
2021/12/18 01:57:23;;;;;;;;;;;;;;;5.68;92.16;103269.88;4939064;28;20402;-88
2021/12/18 01:59:48;;;;;;;;;;;;;;;5.65;91.50;103268.22;4948719;28;20502;-87
2021/12/18 02:02:14;;;;;;;;;;;;;;;5.76;91.54;103267.88;4936761;28;19944;-87
2021/12/18 02:04:40;;;;;;;;;;;;;;;5.80;90.68;103266.06;4931662;28;19931;-86
2021/12/18 02:07:07;;;;;;;;;;;;;;;5.87;90.10;103261.50;4928683;28;20150;-87
2021/12/18 02:10:00;;;;;;;;;;;;;;;5.90;90.29;103257.00;4924877;28;19909;-87
2021/12/18 02:12:19;;;;;;;;;;;;;;;6.00;89.79;103262.88;4942421;28;20692;-87
2021/12/18 02:20:23;;;;;;;;;;;;;;;6.13;89.78;103253.72;4953545;27;20454;-86
2021/12/18 02:22:49;;;;;;;;;;;;;;;6.11;89.71;103252.06;4945292;27;19907;-86
2021/12/18 02:25:14;;;;;;;;;;;;;;;6.03;89.97;103251.41;4929377;27;19987;-87
2021/12/18 02:27:39;;;;;;;;;;;;;;;6.10;89.94;103248.53;4923912;28;19972;-87
2021/12/18 02:30:05;;;;;;;;;;;;;;;6.16;89.49;103237.88;4909507;27;19993;-86
2021/12/18 02:32:30;;;;;;;;;;;;;;;6.17;89.17;103246.59;4945510;27;20342;-83
2021/12/18 02:35:03;;;;;;;;;;;;;;;6.06;89.86;103246.91;4926186;27;20664;-87
2021/12/18 02:37:28;;;;;;;;;;;;;;;6.10;89.69;103248.53;4939391;27;20312;-87
2021/12/18 02:40:51;;;;;;;;;;;;;;;6.00;89.55;103247.09;4935159;27;19983;-87
2021/12/18 02:42:42;;;;;;;;;;;;;;;6.00;90.09;103247.09;4939118;28;20662;-87
2021/12/18 02:45:07;;;;;;;;;;;;;;;5.96;89.96;103234.94;4893353;27;19939;-86
2021/12/18 02:47:33;;;;;;;;;;;;;;;5.88;89.42;103240.41;4937847;27;19919;-87
2021/12/18 02:49:58;;;;;;;;;;;;;;;5.82;87.91;103233.56;4927111;27;20423;-86
2021/12/18 02:52:30;;;;;;;;;;;;;;;5.79;87.48;103236.25;4926882;28;19904;-87
2021/12/18 02:54:55;;;;;;;;;;;;;;;5.77;87.38;103235.47;4908597;28;19915;-87
2021/12/18 02:57:21;;;;;;;;;;;;;;;5.74;87.29;103230.31;4937450;28;20149;-85
2021/12/18 02:59:50;;;;;;;;;;;;;;;5.68;86.91;103235.72;4942340;28;19997;-85
2021/12/18 03:02:15;;;;;;;;;;;;;;;5.48;86.25;103231.88;4938574;28;20460;-87
2021/12/18 03:04:43;;;;;;;;;;;;;;;5.50;86.56;103237.97;4945309;27;20680;-84
2021/12/18 03:07:11;;;;;;;;;;;;;;;5.46;86.62;103230.22;4942339;27;19900;-87
2021/12/18 03:25:41;;;;;;;;;;;;;;;5.11;86.78;103224.13;4935303;27;20575;-87
2021/12/18 03:28:08;;;;;;;;;;;;;;;5.05;86.94;103224.28;4923464;27;20734;-86
2021/12/18 03:30:33;;;;;;;;;;;;;;;5.01;86.90;103220.88;4933141;27;19968;-84
2021/12/18 03:32:58;;;;;;;;;;;;;;;5.00;86.98;103216.53;4940136;27;20015;-86
2021/12/18 03:35:24;;;;;;;;;;;;;;;4.97;86.84;103229.72;4919209;27;20157;-87
2021/12/18 03:37:49;;;;;;;;;;;;;;;4.95;86.40;103214.03;4925152;28;20165;-87
2021/12/18 03:40:15;;;;;;;;;;;;;;;4.94;86.22;103222.78;4916027;28;20013;-87
2021/12/18 03:42:41;;;;;;;;;;;;;;;4.89;86.86;103223.81;4915405;27;19932;-86
2021/12/18 03:45:06;;;;;;;;;;;;;;;4.87;86.60;103209.88;4935254;27;20433;-84
2021/12/18 03:47:31;;;;;;;;;;;;;;;4.81;86.63;103205.66;4951395;27;20803;-84
2021/12/18 03:49:57;;;;;;;;;;;;;;;4.80;87.04;103199.53;4958641;27;20287;-87
2021/12/18 03:52:23;;;;;;;;;;;;;;;4.84;87.20;103205.56;4901636;28;20210;-87
2021/12/18 03:54:48;;;;;;;;;;;;;;;4.84;87.05;103204.69;4921706;27;19937;-87
2021/12/18 03:57:13;;;;;;;;;;;;;;;4.79;86.90;103205.69;4922133;27;20012;-87
2021/12/18 03:59:38;;;;;;;;;;;;;;;4.82;87.10;103203.00;4937332;27;20906;-86
2021/12/18 04:02:03;;;;;;;;;;;;;;;4.82;86.71;103205.63;4923552;28;20356;-84
2021/12/18 04:04:29;;;;;;;;;;;;;;;4.85;87.33;103211.66;4933761;27;20351;-87
2021/12/18 04:06:54;;;;;;;;;;;;;;;4.87;87.39;103199.41;4903678;28;20355;-87
2021/12/18 04:09:19;;;;;;;;;;;;;;;4.79;87.41;103202.19;4910662;28;20070;-87
2021/12/18 04:11:45;;;;;;;;;;;;;;;4.80;87.26;103204.78;4903131;28;19900;-86
2021/12/18 04:14:13;;;;;;;;;;;;;;;4.84;87.17;103212.56;4893894;28;19913;-87
2021/12/18 04:16:39;;;;;;;;;;;;;;;4.80;86.74;103214.41;4924010;27;19915;-87
2021/12/18 04:19:04;;;;;;;;;;;;;;;4.82;87.08;103223.97;4920971;28;20379;-87
2021/12/18 04:21:30;;;;;;;;;;;;;;;4.88;87.38;103219.47;4921911;28;19908;-87
2021/12/18 04:23:55;;;;;;;;;;;;;;;4.90;86.56;103221.16;4924013;28;19927;-85
2021/12/18 04:26:20;;;;;;;;;;;;;;;4.89;86.55;103235.16;4908726;28;20316;-86
2021/12/18 04:28:46;;;;;;;;;;;;;;;4.86;86.75;103240.50;4923799;28;20387;-87
2021/12/18 04:31:11;;;;;;;;;;;;;;;4.92;87.57;103242.09;4918717;28;19912;-86
2021/12/18 04:33:36;;;;;;;;;;;;;;;4.93;87.00;103249.94;4920698;28;20188;-87
2021/12/18 04:36:02;;;;;;;;;;;;;;;4.92;87.99;103249.97;4920177;28;20823;-87
2021/12/18 04:38:27;;;;;;;;;;;;;;;4.94;87.62;103248.19;4908694;28;20578;-87
2021/12/18 04:40:52;;;;;;;;;;;;;;;4.93;87.11;103254.31;4903444;28;20000;-85
2021/12/18 04:43:18;;;;;;;;;;;;;;;4.85;86.98;103259.78;4913843;28;19951;-83
2021/12/18 04:45:43;;;;;;;;;;;;;;;4.85;87.17;103257.16;4925289;28;20025;-87
2021/12/18 04:48:08;;;;;;;;;;;;;;;4.91;87.28;103257.00;4911036;28;19919;-87
2021/12/18 04:50:33;;;;;;;;;;;;;;;4.89;86.51;103264.03;4923330;28;19972;-87
2021/12/18 04:52:59;;;;;;;;;;;;;;;4.88;87.01;103264.94;4929144;28;20482;-86
2021/12/18 04:55:24;;;;;;;;;;;;;;;4.91;86.48;103258.75;4931536;27;19908;-87
2021/12/18 04:57:51;;;;;;;;;;;;;;;4.85;86.61;103253.66;4929727;28;19904;-87
2021/12/18 05:00:16;;;;;;;;;;;;;;;4.75;86.32;103253.88;4930846;27;19899;-86
2021/12/18 05:02:43;;;;;;;;;;;;;;;4.72;86.54;103263.56;4935822;27;19914;-87
2021/12/18 05:05:13;;;;;;;;;;;;;;;4.75;86.66;103253.88;4935292;27;19924;-87
2021/12/18 05:07:38;;;;;;;;;;;;;;;4.73;87.01;103260.91;4919806;28;20313;-87
2021/12/18 05:10:04;;;;;;;;;;;;;;;4.69;86.62;103251.38;4939607;27;19908;-87
2021/12/18 05:12:29;;;;;;;;;;;;;;;4.71;87.29;103247.00;4929930;28;19912;-87
2021/12/18 05:14:55;;;;;;;;;;;;;;;4.74;86.77;103260.03;4935763;28;20244;-85
2021/12/18 05:17:20;;;;;;;;;;;;;;;4.71;87.30;103251.34;4939356;28;20533;-86
2021/12/18 05:19:45;;;;;;;;;;;;;;;4.72;87.66;103251.31;4931006;28;19940;-86
2021/12/18 05:22:10;;;;;;;;;;;;;;;4.78;87.33;103245.94;4923411;28;20000;-87
2021/12/18 05:24:36;;;;;;;;;;;;;;;4.80;86.62;103257.25;4930452;28;19924;-87
2021/12/18 05:27:01;;;;;;;;;;;;;;;4.84;86.60;103257.16;4943268;28;19910;-86
2021/12/18 05:29:26;;;;;;;;;;;;;;;4.77;86.75;103245.97;4928359;28;19907;-87
2021/12/18 05:31:51;;;;;;;;;;;;;;;4.72;86.76;103242.59;4944317;28;20008;-86
2021/12/18 05:34:22;;;;;;;;;;;;;;;4.77;87.06;103235.47;4945536;28;20084;-86
2021/12/18 05:37:14;;;;;;;;;;;;;;;4.80;87.09;103232.78;4925314;28;19957;-83
2021/12/18 05:39:36;;;;;;;;;;;;;;;4.75;87.08;103239.88;4927695;28;20328;-86
2021/12/18 05:42:01;;;;;;;;;;;;;;;4.76;87.17;103225.88;4924317;28;20126;-87
2021/12/18 05:44:26;;;;;;;;;;;;;;;4.74;86.75;103246.06;4927026;28;19927;-85
2021/12/18 05:46:52;;;;;;;;;;;;;;;4.70;87.36;103242.63;4943937;27;20914;-84
2021/12/18 05:49:17;;;;;;;;;;;;;;;4.68;87.50;103236.53;4946152;27;20442;-87
2021/12/18 05:51:43;;;;;;;;;;;;;;;4.70;88.00;103245.25;4924520;27;19918;-86
2021/12/18 05:54:08;;;;;;;;;;;;;;;4.70;88.01;103245.25;4940512;27;20009;-87
2021/12/18 05:56:34;;;;;;;;;;;;;;;4.73;88.62;103239.94;4913653;28;20026;-88
2021/12/18 05:58:59;;;;;;;;;;;;;;;4.78;88.17;103243.31;4909200;28;19912;-89
2021/12/18 06:01:24;;;;;;;;;;;;;;;4.71;87.95;103251.34;4930918;27;19945;-86
2021/12/18 06:03:54;;;;;;;;;;;;;;;4.68;88.49;103239.16;4931592;27;20674;-84
2021/12/18 06:06:21;;;;;;;;;;;;;;;4.69;88.34;103248.78;4948505;27;19922;-84
2021/12/18 06:08:46;;;;;;;;;;;;;;;4.75;88.94;103247.75;4929286;27;19964;-88
2021/12/18 06:11:15;;;;;;;;;;;;;;;4.71;89.19;103244.38;4952814;27;19960;-88
2021/12/18 06:13:40;;;;;;;;;;;;;;;4.72;88.85;103243.44;4932346;27;20175;-88
2021/12/18 06:16:06;;;;;;;;;;;;;;;4.71;88.82;103241.75;4955508;27;20058;-88
2021/12/18 06:18:35;;;;;;;;;;;;;;;4.72;89.45;103248.69;4960752;27;19926;-88
2021/12/18 06:21:00;;;;;;;;;;;;;;;4.78;89.51;103256.44;4961519;27;19904;-89
2021/12/18 06:23:25;;;;;;;;;;;;;;;4.82;89.08;103265.06;4962133;27;21041;-88
2021/12/18 06:25:51;;;;;;;;;;;;;;;4.77;89.29;103264.34;4962107;27;20297;-87
2021/12/18 06:28:16;;;;;;;;;;;;;;;4.73;90.09;103249.56;4946065;27;19907;-89
2021/12/18 06:30:41;;;;;;;;;;;;;;;4.66;89.64;103259.34;4953521;28;19941;-89
2021/12/18 06:33:06;;;;;;;;;;;;;;;4.71;90.28;103264.47;4923151;28;20016;-89
2021/12/18 06:35:32;;;;;;;;;;;;;;;4.74;90.24;103265.28;4921993;27;20337;-84
2021/12/18 06:37:57;;;;;;;;;;;;;;;4.68;90.42;103257.53;4928072;28;20083;-88
2021/12/18 06:40:22;;;;;;;;;;;;;;;4.67;90.67;103258.44;4915303;28;20257;-88
2021/12/18 06:42:48;;;;;;;;;;;;;;;4.72;90.41;103256.56;4917330;27;20222;-88
2021/12/18 06:45:13;;;;;;;;;;;;;;;4.71;90.72;103259.22;4937298;27;20032;-88
2021/12/18 06:47:38;;;;;;;;;;;;;;;4.62;90.98;103266.41;4942571;27;20413;-88
2021/12/18 06:50:04;;;;;;;;;;;;;;;4.72;90.52;103264.44;4937684;27;20004;-86
2021/12/18 06:52:29;;;;;;;;;;;;;;;4.63;90.95;103265.50;4944605;27;20012;-85
2021/12/18 06:54:56;;;;;;;;;;;;;;;4.64;90.95;103263.78;4939716;27;20205;-88
2021/12/18 06:57:22;;;;;;;;;;;;;;;4.70;91.25;103265.38;4943035;27;20357;-87
2021/12/18 06:59:48;;;;;;;;;;;;;;;4.65;91.32;103278.59;4940973;27;19907;-88
2021/12/18 07:02:13;;;;;;;;;;;;;;;4.56;91.49;103270.94;4931631;28;20856;-83
2021/12/18 07:04:38;;;;;;;;;;;;;;;4.56;91.46;103265.69;4920130;28;19972;-88
2021/12/18 07:07:03;;;;;;;;;;;;;;;4.60;91.66;103272.59;4902590;28;20464;-88
2021/12/18 07:09:29;;;;;;;;;;;;;;;4.55;91.27;103267.44;4920117;28;20390;-87
2021/12/18 07:11:54;;;;;;;;;;;;;;;4.53;91.25;103268.41;4912655;28;19945;-88
2021/12/18 07:14:19;;;;;;;;;;;;;;;4.47;91.96;103256.28;4909070;28;19953;-88
2021/12/18 07:16:44;;;;;;;;;;;;;;;4.42;92.10;103266.00;4906569;28;20021;-87
2021/12/18 07:19:10;;;;;;;;;;;;;;;4.44;92.51;103269.44;4900818;28;19919;-86
2021/12/18 07:21:35;;;;;;;;;;;;;;;4.52;92.34;103274.53;4887475;28;19909;-84
2021/12/18 07:24:00;;;;;;;;;;;;;;;4.52;92.57;103275.38;4876484;28;20479;-85
2021/12/18 07:26:26;;;;;;;;;;;;;;;4.55;92.15;103274.47;4880902;28;19908;-83
2021/12/18 07:28:51;;;;;;;;;;;;;;;4.45;91.91;103266.78;4875534;28;19905;-82
2021/12/18 07:31:16;;;;;;;;;;;;;;;4.49;92.13;103270.22;4901297;28;20371;-82
2021/12/18 07:33:43;;;;;;;;;;;;;;;4.67;91.55;103271.56;4911431;28;19937;-83
2021/12/18 07:36:08;;;;;;;;;;;;;;;4.62;91.53;103278.66;4912417;28;20376;-84
2021/12/18 07:38:34;;;;;;;;;;;;;;;4.54;91.58;103273.59;4908475;27;20415;-82
2021/12/18 07:40:59;;;;;;;;;;;;;;;4.55;91.90;103277.09;4891967;28;19938;-82
2021/12/18 07:43:25;;;;;;;;;;;;;;;4.60;92.01;103280.47;4878677;28;19949;-82
2021/12/18 07:45:50;;;;;;;;;;;;;;;4.55;91.95;103282.31;4887180;28;19924;-82
2021/12/18 07:48:15;;;;;;;;;;;;;;;4.55;91.94;103277.09;4904092;28;19924;-82
2021/12/18 07:50:40;;;;;;;;;;;;;;;5.62;95.56;103265.63;4890934;28;20012;-84
2021/12/18 07:53:06;;;;;;;;;;;;;;;6.19;94.98;103265.84;4895774;28;20131;-83
2021/12/18 07:55:32;;;;;;;;;;;;;;;5.48;88.50;103265.16;4900567;28;19908;-83
2021/12/18 07:57:57;;;;;;;;;;;;;;;5.21;88.23;103267.63;4906583;28;20276;-82
2021/12/18 08:00:23;;;;;;;;;;;;;;;5.08;88.99;103267.06;4899109;28;19981;-83
2021/12/18 08:02:48;;;;;;;;;;;;;;;4.95;90.45;103282.25;4900572;28;19915;-84
2021/12/18 08:05:14;;;;;;;;;;;;;;;4.90;90.85;103271.00;4914277;28;20332;-84
2021/12/18 08:07:39;;;;;;;;;;;;;;;4.81;91.37;103264.22;4908913;28;20390;-83
2021/12/18 08:10:06;;;;;;;;;;;;;;;4.81;91.16;103273.88;4905263;28;20363;-83
2021/12/18 08:12:31;;;;;;;;;;;;;;;4.88;90.63;103269.31;4904203;28;19912;-84
2021/12/18 08:14:58;;;;;;;;;;;;;;;4.77;90.89;103265.19;4917939;28;19968;-84
2021/12/18 08:17:23;;;;;;;;;;;;;;;4.65;91.06;103257.59;4910388;28;20492;-84
2021/12/18 08:19:48;;;;;;;;;;;;;;;4.63;91.02;103256.78;4898554;28;19994;-83
2021/12/18 08:22:14;;;;;;;;;;;;;;;4.74;91.14;103254.78;4942438;28;19949;-83
2021/12/18 08:24:39;;;;;;;;;;;;;;;4.77;91.52;103267.81;4912055;28;19927;-82
2021/12/18 08:27:04;;;;;;;;;;;;;;;4.81;91.34;103269.47;4922822;28;20004;-82
2021/12/18 08:29:29;;;;;;;;;;;;;;;4.84;91.45;103265.03;4928634;28;19949;-82
2021/12/18 08:31:54;;;;;;;;;;;;;;;4.76;90.73;103266.06;4918345;28;20004;-82
2021/12/18 08:34:20;;;;;;;;;;;;;;;4.74;90.79;103262.66;4924059;28;20245;-85
2021/12/18 08:36:45;;;;;;;;;;;;;;;4.72;91.26;103260.94;4922815;28;19904;-85
2021/12/18 08:39:11;;;;;;;;;;;;;;;4.80;91.55;103256.38;4921653;28;20259;-85
2021/12/18 08:41:38;;;;;;;;;;;;;;;4.70;91.12;103260.13;4900562;28;19934;-84
2021/12/18 08:44:03;;;;;;;;;;;;;;;4.71;91.09;103262.72;4905264;28;20847;-83
2021/12/18 08:46:29;;;;;;;;;;;;;;;4.73;91.11;103250.41;4936778;28;19908;-88
2021/12/18 08:48:54;;;;;;;;;;;;;;;4.68;91.47;103257.53;4926687;28;19957;-87
2021/12/18 08:51:19;;;;;;;;;;;;;;;4.68;92.14;103264.53;4931483;28;20504;-88
2021/12/18 08:53:45;;;;;;;;;;;;;;;4.61;91.94;103255.94;4938416;28;19904;-89
2021/12/18 08:56:10;;;;;;;;;;;;;;;4.71;92.30;103254.84;4905858;28;19931;-86
2021/12/18 08:58:35;;;;;;;;;;;;;;;4.78;92.66;103248.56;4928832;28;19968;-86
2021/12/18 09:01:01;;;;;;;;;;;;;;;4.79;92.00;103260.78;4907442;28;20524;-84
2021/12/18 09:03:26;;;;;;;;;;;;;;;4.86;92.16;103258.84;4902621;28;20366;-83
2021/12/18 09:05:52;;;;;;;;;;;;;;;4.82;91.84;103260.72;4907878;28;20288;-84
2021/12/18 09:08:17;;;;;;;;;;;;;;;4.84;91.90;103262.41;4881231;28;19950;-84
2021/12/18 09:10:42;;;;;;;;;;;;;;;4.78;91.73;103259.06;4889499;28;19908;-84
2021/12/18 09:13:08;;;;;;;;;;;;;;;4.85;92.05;103258.88;4885298;28;19916;-82
2021/12/18 09:15:33;;;;;;;;;;;;;;;4.73;91.63;103255.66;4897748;28;19912;-82
2021/12/18 09:17:59;;;;;;;;;;;;;;;4.74;91.79;103267.91;4898346;28;20245;-82
2021/12/18 09:20:24;;;;;;;;;;;;;;;4.72;92.09;103269.66;4895488;28;20330;-82
2021/12/18 09:22:50;;;;;;;;;;;;;;;4.73;92.27;103265.31;4905526;28;19904;-81
2021/12/18 09:25:15;;;;;;;;;;;;;;;4.84;91.89;103272.91;4917247;28;19924;-82
2021/12/18 09:27:40;;;;;;;;;;;;;;;4.85;91.78;103272.00;4902244;28;19942;-83
2021/12/18 09:30:07;;;;;;;;;;;;;;;5.01;91.80;103269.91;4899588;28;19977;-84
2021/12/18 09:32:32;;;;;;;;;;;;;;;4.97;92.00;103261.22;4889039;28;20315;-82
2021/12/18 09:34:58;;;;;;;;;;;;;;;4.99;91.87;103269.91;4914849;28;20499;-82
2021/12/18 09:37:23;;;;;;;;;;;;;;;5.05;91.96;103277.66;4933561;28;19942;-82
2021/12/18 09:39:48;;;;;;;;;;;;;;;5.05;92.14;103272.41;4941697;28;19908;-83
2021/12/18 09:42:13;;;;;;;;;;;;;;;5.12;91.05;103273.97;4944514;28;20433;-82
2021/12/18 09:44:39;;;;;;;;;;;;;;;5.11;91.23;103277.47;4930631;28;19933;-82
2021/12/18 09:47:04;;;;;;;;;;;;;;;5.18;90.74;103267.69;4926057;28;20804;-82
2021/12/18 09:49:30;;;;;;;;;;;;;;;5.17;91.21;103263.34;4951927;28;19912;-82
2021/12/18 09:51:55;;;;;;;;;;;;;;;5.02;90.21;103272.47;4940449;28;20684;-83
2021/12/18 09:54:23;;;;;;;;;;;;;;;5.01;90.53;103265.50;4932427;28;19905;-81
2021/12/18 09:56:48;;;;;;;;;;;;;;;4.95;90.96;103273.50;4924072;28;20188;-81
2021/12/18 09:59:14;;;;;;;;;;;;;;;4.92;91.43;103265.72;4947933;28;20503;-82
2021/12/18 10:01:39;;;;;;;;;;;;;;;5.00;91.25;103266.38;4949506;28;19915;-83
2021/12/18 10:04:05;;;;;;;;;;;;;;;5.06;90.99;103261.00;4929157;28;20352;-83
2021/12/18 10:06:39;;;;;;;;;;;;;;;4.97;90.82;103269.09;4956653;28;19908;-83
2021/12/18 10:09:08;;;;;;;;;;;;;;;4.97;91.44;103253.34;4957381;28;20062;-83
2021/12/18 10:11:34;;;;;;;;;;;;;;;4.95;91.78;103249.88;4935948;27;20099;-80
2021/12/18 10:14:02;;;;;;;;;;;;;;;4.96;91.05;103251.63;4936422;27;20183;-83
2021/12/18 10:16:27;;;;;;;;;;;;;;;5.06;91.66;103255.75;4953564;27;20481;-83
2021/12/18 10:18:53;;;;;;;;;;;;;;;5.03;91.19;103237.44;4954863;27;19911;-83
2021/12/18 10:21:19;;;;;;;;;;;;;;;5.05;91.08;103230.41;4964292;27;20486;-83
2021/12/18 10:23:45;;;;;;;;;;;;;;;5.11;90.75;103221.50;4964762;27;19911;-83
2021/12/18 10:26:29;;;;;;;;;;;;;;;5.14;90.10;103229.31;4950984;27;19919;-83
2021/12/18 10:28:54;;;;;;;;;;;;;;;5.16;90.23;103230.09;4971130;27;19900;-83
2021/12/18 10:31:37;;;;;;;;;;;;;;;5.25;90.65;103235.13;4953575;27;20365;-83
2021/12/18 10:34:21;;;;;;;;;;;;;;;5.26;90.07;103228.97;4967072;27;19907;-84
2021/12/18 10:37:05;;;;;;;;;;;;;;;5.23;89.87;103210.69;4973745;27;20571;-83
2021/12/18 10:39:30;;;;;;;;;;;;;;;5.21;89.73;103217.72;4974196;27;19949;-84
2021/12/18 10:41:55;;;;;;;;;;;;;;;4.92;90.07;103219.38;4975381;27;20321;-83
2021/12/18 10:44:21;;;;;;;;;;;;;;;4.85;91.06;103230.03;4976130;27;19964;-83
2021/12/18 10:46:47;;;;;;;;;;;;;;;5.03;91.56;103216.44;4956051;28;19930;-83
2021/12/18 10:49:16;;;;;;;;;;;;;;;5.14;91.16;103211.78;4933071;28;19960;-83
2021/12/18 10:51:41;;;;;;;;;;;;;;;5.09;90.82;103202.31;4936006;28;19908;-83
2021/12/18 10:54:07;;;;;;;;;;;;;;;5.12;90.84;103200.47;4941688;28;19918;-83
2021/12/18 10:56:34;;;;;;;;;;;;;;;5.32;91.36;103202.56;4928000;28;19919;-82
2021/12/18 10:58:59;;;;;;;;;;;;;;;5.36;90.38;103202.47;4912670;28;19904;-83
2021/12/18 11:01:25;;;;;;;;;;;;;;;5.27;90.27;103199.22;4920354;28;20376;-83
2021/12/18 11:03:50;;;;;;;;;;;;;;;5.21;90.28;103203.75;4912111;28;19962;-83
2021/12/18 11:06:22;;;;;;;;;;;;;;;5.27;91.05;103207.09;4931525;28;20024;-83
2021/12/18 11:08:51;;;;;;;;;;;;;;;5.28;90.80;103202.69;4929716;28;19934;-82
2021/12/18 11:14:01;;;;;;;;;;;;;;;5.32;90.70;103185.94;4935030;27;19912;-81
2021/12/18 11:16:27;;;;;;;;;;;;;;;5.35;90.59;103188.50;4945882;28;20056;-82
2021/12/18 11:18:54;;;;;;;;;;;;;;;5.37;90.08;103189.28;4944811;28;19911;-82
2021/12/18 11:21:19;;;;;;;;;;;;;;;5.42;90.01;103191.81;4945782;28;20423;-82
2021/12/18 11:23:48;;;;;;;;;;;;;;;5.43;89.76;103189.16;4927267;28;19904;-82
2021/12/18 11:26:13;;;;;;;;;;;;;;;5.37;90.11;103184.03;4909160;28;19916;-82
2021/12/18 11:28:42;;;;;;;;;;;;;;;5.52;89.84;103179.28;4915588;28;19905;-83
2021/12/18 11:31:07;;;;;;;;;;;;;;;5.47;89.69;103180.28;4932204;28;20293;-82
2021/12/18 11:33:33;;;;;;;;;;;;;;;5.43;89.71;103170.75;4918455;28;19919;-84
2021/12/18 11:36:00;;;;;;;;;;;;;;;5.43;90.24;103164.63;4941640;28;20274;-84
2021/12/18 11:38:25;;;;;;;;;;;;;;;5.44;90.24;103169.88;4951503;28;20029;-83
2021/12/18 11:40:51;;;;;;;;;;;;;;;5.47;90.84;103163.63;4945402;28;19919;-83
2021/12/18 11:43:28;;;;;;;;;;;;;;;5.43;90.16;103162.00;4955991;28;19916;-83
2021/12/18 11:45:54;;;;;;;;;;;;;;;5.43;90.19;103162.88;4958936;28;20325;-83
2021/12/18 11:48:19;;;;;;;;;;;;;;;5.50;90.07;103169.69;4979372;28;19944;-84
2021/12/18 11:50:45;;;;;;;;;;;;;;;5.46;90.03;103160.16;4967228;28;19936;-82
2021/12/18 11:53:11;;;;;;;;;;;;;;;5.54;89.92;103164.34;4992229;28;20137;-84
2021/12/18 11:55:53;;;;;;;;;;;;;;;5.54;89.00;103161.72;4984839;27;19908;-83
2021/12/18 11:58:25;;;;;;;;;;;;;;;5.47;89.83;103163.63;5003538;27;19908;-83
2021/12/18 12:00:59;;;;;;;;;;;;;;;5.48;90.38;103157.50;4978878;28;19994;-82
2021/12/18 12:03:25;;;;;;;;;;;;;;;5.47;90.40;103166.25;4938020;28;19919;-83
2021/12/18 12:05:50;;;;;;;;;;;;;;;5.54;90.69;103161.72;4952705;28;20754;-84
2021/12/18 12:08:19;;;;;;;;;;;;;;;5.52;90.76;103155.66;4955728;28;20216;-83
2021/12/18 12:11:03;;;;;;;;;;;;;;;5.46;90.72;103154.91;4964714;28;20276;-84
2021/12/18 12:13:47;;;;;;;;;;;;;;;5.42;90.78;103153.28;4937635;28;20611;-84
2021/12/18 12:16:13;;;;;;;;;;;;;;;5.45;90.59;103147.94;4968502;27;20834;-83
2021/12/18 12:18:57;;;;;;;;;;;;;;;5.32;91.37;103151.81;4979000;27;19912;-84
2021/12/18 12:21:41;;;;;;;;;;;;;;;5.44;91.61;103142.72;4954444;27;20306;-83
2021/12/18 12:24:07;;;;;;;;;;;;;;;5.45;91.70;103140.06;4939438;28;19964;-82
2021/12/18 12:26:32;;;;;;;;;;;;;;;5.48;91.11;103139.97;4937026;28;20252;-82
2021/12/18 12:28:58;;;;;;;;;;;;;;;5.58;91.46;103132.66;4940056;28;19900;-81
2021/12/18 12:31:23;;;;;;;;;;;;;;;5.54;90.99;103135.44;4943243;28;20175;-85
2021/12/18 12:33:50;;;;;;;;;;;;;;;5.50;90.96;103140.78;4939316;28;19908;-80
2021/12/18 12:36:27;;;;;;;;;;;;;;;5.50;91.21;103132.06;4974010;28;20222;-86
2021/12/18 12:38:56;;;;;;;;;;;;;;;5.54;91.20;103124.94;4969586;28;19911;-81
2021/12/18 12:41:42;;;;;;;;;;;;;;;5.50;90.69;103137.31;4949852;28;19920;-81
2021/12/18 12:44:16;;;;;;;;;;;;;;;5.50;91.87;103134.69;4973183;28;19996;-84
2021/12/18 12:46:42;;;;;;;;;;;;;;;5.54;91.12;103138.06;4964038;28;19977;-82
2021/12/18 12:49:07;;;;;;;;;;;;;;;5.57;91.73;103128.34;4972468;28;19907;-82
2021/12/18 12:51:55;;;;;;;;;;;;;;;5.60;91.68;103127.41;4959118;28;20175;-83
2021/12/18 12:54:38;;;;;;;;;;;;;;;5.60;91.47;103119.53;5000082;28;19977;-82
2021/12/18 12:57:30;;;;;;;;;;;;;;;5.64;91.59;103118.50;4984419;28;19973;-84
2021/12/18 12:59:58;;;;;;;;;;;;;;;5.67;91.08;103115.81;4963170;28;20176;-82
2021/12/18 13:02:27;;;;;;;;;;;;;;;5.68;91.67;103109.63;4969632;28;20265;-84
2021/12/18 13:04:59;;;;;;;;;;;;;;;5.67;91.05;103102.66;4994206;28;19983;-84
2021/12/18 13:07:24;;;;;;;;;;;;;;;5.66;91.75;103101.78;4936215;28;20025;-85
2021/12/18 13:09:49;;;;;;;;;;;;;;;5.72;92.04;103105.16;4930020;28;20133;-83
2021/12/18 13:12:15;;;;;;;;;;;;;;;5.70;91.73;103106.94;4977495;28;19908;-82
2021/12/18 13:14:41;;;;;;;;;;;;;;;5.67;92.30;103097.41;4987798;28;20355;-84
2021/12/18 13:17:16;;;;;;;;;;;;;;;5.62;92.11;103101.94;4969100;28;19960;-82
2021/12/18 13:19:51;;;;;;;;;;;;;;;5.68;92.44;103105.25;4986956;28;19904;-82
2021/12/18 13:22:17;;;;;;;;;;;;;;;5.63;92.11;103091.38;4966324;28;19908;-84
2021/12/18 13:24:42;;;;;;;;;;;;;;;5.66;91.98;103106.19;4965540;28;20281;-86
2021/12/18 13:27:11;;;;;;;;;;;;;;;5.75;92.70;103094.53;4964694;28;19908;-86